createdAt,value
2018-12-23T00:01:20.851Z,14.07
2018-12-23T00:03:50.367Z,12.87
2018-12-23T00:06:18.879Z,10.47
2018-12-23T00:08:47.405Z,11.97
2018-12-23T00:11:16.283Z,13.43
2018-12-23T00:13:45.099Z,11.70
2018-12-23T00:16:13.731Z,10.58
2018-12-23T00:18:42.395Z,14.20
2018-12-23T00:21:11.572Z,11.30
2018-12-23T00:23:40.513Z,8.27
2018-12-23T00:26:08.956Z,12.97
2018-12-23T00:28:37.471Z,12.67
2018-12-23T00:31:06.092Z,8.87
2018-12-23T00:33:34.696Z,10.67
2018-12-23T00:36:03.386Z,9.03
2018-12-23T00:38:31.958Z,11.57
2018-12-23T00:41:00.963Z,10.27
2018-12-23T00:43:30.102Z,11.87
2018-12-23T00:45:58.907Z,9.60
2018-12-23T00:48:27.430Z,13.57
2018-12-23T00:50:56.310Z,10.13
2018-12-23T00:53:28.307Z,11.10
2018-12-23T00:55:58.071Z,14.60
2018-12-23T00:58:26.555Z,18.83
2018-12-23T01:00:55.098Z,16.03
2018-12-23T01:03:23.651Z,14.07
2018-12-23T01:05:52.531Z,12.27
2018-12-23T01:08:21.418Z,15.68
2018-12-23T01:10:49.891Z,9.37
2018-12-23T01:13:18.366Z,12.50
2018-12-23T01:15:47.155Z,10.73
2018-12-23T01:18:15.654Z,12.97
2018-12-23T01:20:44.147Z,15.27
2018-12-23T01:23:12.710Z,18.37
2018-12-23T01:25:41.183Z,19.20
2018-12-23T01:28:09.758Z,13.23
2018-12-23T01:30:38.918Z,12.30
2018-12-23T01:33:07.931Z,11.07
2018-12-23T01:35:37.225Z,7.37
2018-12-23T01:38:05.018Z,12.90
2018-12-23T01:40:33.670Z,18.57
2018-12-23T01:43:02.213Z,21.47
2018-12-23T01:45:30.714Z,19.57
2018-12-23T01:47:59.490Z,17.13
2018-12-23T01:50:27.959Z,22.20
2018-12-23T01:52:56.823Z,14.20
2018-12-23T01:55:25.294Z,18.43
2018-12-23T01:57:53.739Z,16.70
2018-12-23T02:00:22.991Z,13.90
2018-12-23T02:02:51.889Z,14.13
2018-12-23T02:05:20.586Z,9.03
2018-12-23T02:07:49.073Z,9.43
2018-12-23T02:10:17.566Z,10.40
2018-12-23T02:12:46.498Z,7.77
2018-12-23T02:15:14.986Z,7.58
2018-12-23T02:17:43.726Z,8.90
2018-12-23T02:20:12.629Z,6.43
2018-12-23T02:22:41.719Z,4.73
2018-12-23T02:25:10.342Z,5.43
2018-12-23T02:27:38.942Z,6.80
2018-12-23T02:30:08.450Z,3.17
2018-12-23T02:32:37.158Z,4.80
2018-12-23T02:35:06.342Z,5.93
2018-12-23T02:37:34.858Z,5.87
2018-12-23T02:40:03.350Z,6.97
2018-12-23T02:42:32.342Z,7.90
2018-12-23T02:45:00.906Z,4.83
2018-12-23T02:51:00.310Z,6.30
2018-12-23T02:53:28.734Z,6.20
2018-12-23T02:55:57.194Z,6.17
2018-12-23T02:58:25.767Z,7.23
2018-12-23T03:00:54.326Z,5.97
2018-12-23T03:03:22.806Z,8.30
2018-12-23T03:05:51.290Z,6.77
2018-12-23T03:08:19.927Z,7.87
2018-12-23T03:10:48.725Z,4.70
2018-12-23T03:13:17.313Z,3.33
2018-12-23T03:15:45.866Z,5.60
2018-12-23T03:18:15.053Z,6.00
2018-12-23T03:20:43.647Z,4.43
2018-12-23T03:23:12.193Z,4.53
2018-12-23T03:25:41.134Z,4.70
2018-12-23T03:28:09.676Z,2.90
2018-12-23T03:30:38.342Z,5.10
2018-12-23T03:33:06.893Z,5.87
2018-12-23T03:35:35.486Z,3.10
2018-12-23T03:38:05.036Z,4.13
2018-12-23T03:40:33.809Z,4.63
2018-12-23T03:43:02.545Z,3.73
2018-12-23T03:45:30.996Z,3.37
2018-12-23T03:47:59.655Z,5.50
2018-12-23T03:50:28.232Z,7.20
2018-12-23T03:52:56.772Z,7.70
2018-12-23T03:55:25.413Z,8.90
2018-12-23T03:57:53.924Z,5.67
2018-12-23T04:00:22.520Z,5.22
2018-12-23T04:02:51.140Z,5.67
2018-12-23T04:05:20.076Z,6.87
2018-12-23T04:07:48.859Z,3.47
2018-12-23T04:10:17.388Z,6.93
2018-12-23T04:12:45.936Z,6.07
2018-12-23T04:15:14.663Z,7.73
2018-12-23T04:17:43.176Z,10.17
2018-12-23T04:20:11.744Z,12.20
2018-12-23T04:22:40.502Z,9.00
2018-12-23T04:25:09.576Z,11.43
2018-12-23T04:27:38.304Z,11.53
2018-12-23T04:30:07.072Z,9.83
2018-12-23T04:32:35.753Z,13.57
2018-12-23T04:35:04.878Z,10.17
2018-12-23T04:37:33.950Z,12.00
2018-12-23T04:40:03.451Z,12.07
2018-12-23T04:42:32.275Z,9.40
2018-12-23T04:45:01.004Z,8.77
2018-12-23T04:47:29.845Z,7.77
2018-12-23T04:49:58.539Z,8.17
2018-12-23T04:52:27.172Z,10.53
2018-12-23T04:54:57.596Z,7.90
2018-12-23T04:57:26.348Z,11.70
2018-12-23T04:59:55.073Z,13.13
2018-12-23T05:02:23.857Z,9.10
2018-12-23T05:04:52.932Z,9.80
2018-12-23T05:07:21.648Z,8.83
2018-12-23T05:09:50.620Z,11.63
2018-12-23T05:12:19.100Z,10.67
2018-12-23T05:14:47.556Z,11.63
2018-12-23T05:17:16.064Z,11.93
2018-12-23T05:19:44.989Z,12.37
2018-12-23T05:22:14.875Z,9.13
2018-12-23T05:24:44.001Z,9.70
2018-12-23T05:27:12.792Z,9.23
2018-12-23T05:29:41.384Z,10.87
2018-12-23T05:32:09.951Z,9.97
2018-12-23T05:34:38.756Z,9.13
2018-12-23T05:37:07.650Z,10.43
2018-12-23T05:39:36.732Z,10.00
2018-12-23T05:42:05.523Z,9.13
2018-12-23T05:44:34.596Z,12.77
2018-12-23T05:47:03.528Z,10.40
2018-12-23T05:49:32.312Z,10.47
2018-12-23T05:52:01.139Z,8.67
2018-12-23T05:54:29.707Z,14.20
2018-12-23T05:56:58.303Z,10.97
2018-12-23T05:59:26.856Z,11.77
2018-12-23T06:01:56.019Z,10.37
2018-12-23T06:04:24.896Z,10.70
2018-12-23T06:07:00.786Z,8.97
2018-12-23T06:09:22.887Z,11.53
2018-12-23T06:11:51.775Z,9.77
2018-12-23T06:14:20.516Z,15.67
2018-12-23T06:16:49.511Z,10.40
2018-12-23T06:19:18.327Z,14.90
2018-12-23T06:21:47.675Z,12.53
2018-12-23T06:24:16.414Z,13.65
2018-12-23T06:26:45.235Z,14.97
2018-12-23T06:29:14.331Z,11.77
2018-12-23T06:31:42.771Z,11.27
2018-12-23T06:34:11.298Z,13.10
2018-12-23T06:36:39.843Z,11.97
2018-12-23T06:39:08.287Z,14.93
2018-12-23T06:41:37.022Z,12.20
2018-12-23T06:44:05.447Z,14.17
2018-12-23T06:46:34.150Z,11.00
2018-12-23T06:49:02.610Z,12.17
2018-12-23T06:51:31.127Z,11.33
2018-12-23T06:54:06.454Z,13.97
2018-12-23T06:56:35.059Z,11.93
2018-12-23T06:59:04.326Z,12.03
2018-12-23T07:01:32.926Z,13.07
2018-12-23T07:04:01.699Z,13.43
2018-12-23T07:06:30.723Z,12.93
2018-12-23T07:08:59.538Z,15.10
2018-12-23T07:11:28.394Z,18.40
2018-12-23T07:13:57.203Z,11.70
2018-12-23T07:16:26.966Z,11.97
2018-12-23T07:18:55.862Z,11.60
2018-12-23T07:21:24.398Z,13.10
2018-12-23T07:23:52.858Z,13.63
2018-12-23T07:26:21.738Z,12.23
2018-12-23T07:28:50.334Z,14.47
2018-12-23T07:34:50.726Z,8.37
2018-12-23T07:37:27.247Z,7.72
2018-12-23T07:39:47.895Z,7.50
2018-12-23T07:42:16.511Z,9.10
2018-12-23T07:44:45.146Z,12.10
2018-12-23T07:47:13.829Z,8.27
2018-12-23T07:49:42.794Z,10.90
2018-12-23T07:52:11.294Z,9.77
2018-12-23T07:54:39.942Z,12.20
2018-12-23T07:57:09.866Z,10.50
2018-12-23T07:59:40.273Z,10.13
2018-12-23T08:02:10.938Z,12.83
2018-12-23T08:04:39.501Z,12.13
2018-12-23T08:07:08.157Z,11.60
2018-12-23T08:09:36.865Z,8.87
2018-12-23T08:12:05.486Z,11.87
2018-12-23T08:14:34.119Z,10.67
2018-12-23T08:17:02.597Z,12.90
2018-12-23T08:19:31.729Z,13.17
2018-12-23T08:22:00.505Z,12.83
2018-12-23T08:24:29.089Z,11.10
2018-12-23T08:26:57.589Z,10.63
2018-12-23T08:29:26.137Z,16.70
2018-12-23T08:31:54.690Z,9.07
2018-12-23T08:34:23.345Z,9.20
2018-12-23T08:36:52.137Z,10.77
2018-12-23T08:39:20.949Z,9.87
2018-12-23T08:41:50.078Z,14.77
2018-12-23T08:44:18.607Z,11.20
2018-12-23T08:46:47.101Z,14.77
2018-12-23T08:49:16.011Z,14.70
2018-12-23T08:51:47.401Z,15.10
2018-12-23T08:54:15.893Z,15.47
2018-12-23T08:56:44.658Z,9.77
2018-12-23T08:59:13.400Z,14.97
2018-12-23T09:01:41.893Z,14.10
2018-12-23T09:04:10.621Z,8.30
2018-12-23T09:06:39.121Z,11.77
2018-12-23T09:09:07.941Z,12.83
2018-12-23T09:11:42.813Z,14.20
2018-12-23T09:14:05.006Z,11.87
2018-12-23T09:16:33.629Z,10.47
2018-12-23T09:19:02.877Z,10.00
2018-12-23T09:21:31.477Z,9.67
2018-12-23T09:24:00.125Z,10.07
2018-12-23T09:26:28.625Z,11.67
2018-12-23T09:28:57.260Z,13.90
2018-12-23T09:31:26.386Z,12.03
2018-12-23T09:33:54.917Z,14.87
2018-12-23T09:36:23.781Z,12.00
2018-12-23T09:38:52.281Z,15.47
2018-12-23T09:41:20.899Z,16.30
2018-12-23T09:43:49.705Z,12.50
2018-12-23T09:46:18.497Z,13.70
2018-12-23T09:48:47.265Z,10.93
2018-12-23T09:51:16.124Z,9.93
2018-12-23T09:53:45.072Z,16.30
2018-12-23T09:56:13.876Z,18.63
2018-12-23T09:58:42.705Z,29.13
2018-12-23T10:01:11.709Z,25.00
2018-12-23T10:03:40.553Z,19.83
2018-12-23T10:06:09.088Z,26.17
2018-12-23T10:08:37.897Z,21.13
2018-12-23T10:11:06.404Z,28.37
2018-12-23T10:13:35.289Z,23.00
2018-12-23T10:16:04.164Z,27.30
2018-12-23T10:18:32.632Z,27.43
2018-12-23T10:21:01.172Z,28.13
2018-12-23T10:23:29.697Z,24.33
2018-12-23T10:26:00.152Z,35.43
2018-12-23T10:28:28.676Z,36.13
2018-12-23T10:30:57.230Z,37.13
2018-12-23T10:33:25.743Z,28.57
2018-12-23T10:35:54.493Z,28.30
2018-12-23T10:38:22.989Z,21.27
2018-12-23T10:40:51.524Z,29.63
2018-12-23T10:43:20.365Z,26.80
2018-12-23T10:45:49.225Z,36.57
2018-12-23T10:48:17.692Z,26.30
2018-12-23T10:50:46.201Z,26.27
2018-12-23T10:53:16.342Z,23.10
2018-12-23T10:55:46.813Z,22.30
2018-12-23T10:58:16.168Z,21.83
2018-12-23T11:00:44.801Z,26.23
2018-12-23T11:03:13.640Z,30.80
2018-12-23T11:05:42.456Z,25.13
2018-12-23T11:08:11.092Z,26.90
2018-12-23T11:10:39.713Z,31.00
2018-12-23T11:13:08.419Z,30.30
2018-12-23T11:15:36.985Z,27.10
2018-12-23T11:18:05.636Z,22.90
2018-12-23T11:20:34.289Z,24.90
2018-12-23T11:23:03.267Z,20.77
2018-12-23T11:25:32.204Z,15.30
2018-12-23T11:28:01.185Z,17.40
2018-12-23T11:30:29.912Z,18.47
2018-12-23T11:32:58.731Z,17.37
2018-12-23T11:35:27.263Z,21.20
2018-12-23T11:38:10.471Z,15.80
2018-12-23T11:40:39.107Z,16.03
2018-12-23T11:43:07.660Z,16.17
2018-12-23T11:45:37.039Z,21.80
2018-12-23T11:48:05.571Z,17.77
2018-12-23T11:50:34.251Z,21.80
2018-12-23T11:53:02.893Z,25.27
2018-12-23T11:55:31.412Z,20.00
2018-12-23T11:58:00.061Z,21.60
2018-12-23T12:00:28.651Z,21.27
2018-12-23T12:02:57.199Z,20.03
2018-12-23T12:05:26.339Z,21.50
2018-12-23T12:07:54.891Z,21.60
2018-12-23T12:10:23.491Z,28.50
2018-12-23T12:12:52.020Z,18.23
2018-12-23T12:15:20.591Z,22.23
2018-12-23T12:17:49.088Z,21.13
2018-12-23T12:20:18.497Z,19.87
2018-12-23T12:22:46.976Z,21.10
2018-12-23T12:25:15.484Z,24.52
2018-12-23T12:27:44.100Z,28.23
2018-12-23T12:30:12.626Z,30.50
2018-12-23T12:32:41.156Z,29.60
2018-12-23T12:35:09.936Z,32.47
2018-12-23T12:37:39.170Z,31.07
2018-12-23T12:40:07.680Z,27.63
2018-12-23T12:42:36.196Z,31.87
2018-12-23T12:45:04.960Z,27.60
2018-12-23T12:47:33.688Z,33.87
2018-12-23T12:50:02.736Z,39.30
2018-12-23T12:52:31.434Z,30.03
2018-12-23T12:54:59.995Z,30.40
2018-12-23T12:57:28.920Z,25.30
2018-12-23T12:59:58.068Z,28.20
2018-12-23T13:02:26.608Z,30.53
2018-12-23T13:04:57.872Z,24.30
2018-12-23T13:07:26.396Z,31.50
2018-12-23T13:10:04.744Z,21.60
2018-12-23T13:12:33.264Z,27.73
2018-12-23T13:15:01.856Z,26.90
2018-12-23T13:17:30.496Z,28.87
2018-12-23T13:19:58.974Z,24.90
2018-12-23T13:22:27.508Z,27.33
2018-12-23T13:24:56.072Z,26.07
2018-12-23T13:27:24.624Z,34.10
2018-12-23T13:29:53.152Z,25.30
2018-12-23T13:32:22.952Z,23.30
2018-12-23T13:34:51.548Z,32.27
2018-12-23T13:37:20.040Z,34.63
2018-12-23T13:39:51.283Z,26.23
2018-12-23T13:42:37.663Z,33.10
2018-12-23T13:47:19.827Z,33.20
2018-12-23T13:50:04.451Z,35.93
2018-12-23T13:52:41.482Z,36.53
2018-12-23T13:55:20.074Z,37.57
2018-12-23T13:58:01.491Z,41.37
2018-12-23T14:00:39.490Z,41.33
2018-12-23T14:03:25.214Z,44.90
2018-12-23T14:06:11.530Z,42.23
2018-12-23T14:11:02.250Z,51.30
2018-12-23T14:13:31.037Z,52.97
2018-12-23T14:15:59.502Z,56.97
2018-12-23T14:18:28.022Z,67.33
2018-12-23T14:20:56.486Z,58.93
2018-12-23T14:23:25.275Z,58.60
2018-12-23T14:25:53.810Z,61.63
2018-12-23T14:28:22.327Z,53.77
2018-12-23T14:30:51.530Z,47.93
2018-12-23T14:33:20.190Z,60.60
2018-12-23T14:35:49.559Z,51.00
2018-12-23T14:38:18.349Z,54.10
2018-12-23T14:40:47.309Z,49.47
2018-12-23T14:43:16.270Z,46.80
2018-12-23T14:45:45.146Z,43.60
2018-12-23T14:48:13.870Z,45.10
2018-12-23T14:50:42.610Z,48.93
2018-12-23T14:53:12.246Z,42.27
2018-12-23T14:55:41.470Z,40.80
2018-12-23T14:58:11.225Z,37.70
2018-12-23T15:01:03.230Z,43.80
2018-12-23T15:03:32.255Z,37.93
2018-12-23T15:06:01.350Z,44.70
2018-12-23T15:08:31.158Z,38.17
2018-12-23T15:10:59.854Z,40.43
2018-12-23T15:13:28.511Z,39.37
2018-12-23T15:15:58.126Z,41.03
2018-12-23T15:18:27.126Z,43.63
2018-12-23T15:20:57.430Z,39.10
2018-12-23T15:23:25.941Z,38.67
2018-12-23T15:25:54.746Z,40.40
2018-12-23T15:28:23.250Z,35.63
2018-12-23T15:30:51.787Z,32.40
2018-12-23T15:33:21.355Z,34.07
2018-12-23T15:35:50.162Z,27.53
2018-12-23T15:38:19.110Z,30.63
2018-12-23T15:40:47.658Z,32.27
2018-12-23T15:43:16.269Z,31.30
2018-12-23T15:45:45.526Z,32.77
2018-12-23T15:48:14.493Z,35.17
2018-12-23T15:50:43.334Z,35.27
2018-12-23T15:53:11.962Z,30.60
2018-12-23T15:55:40.462Z,28.97
2018-12-23T15:58:09.880Z,29.00
2018-12-23T16:00:37.782Z,30.00
2018-12-23T16:03:06.253Z,29.00
2018-12-23T16:05:34.747Z,25.23
2018-12-23T16:08:03.591Z,22.53
2018-12-23T16:10:32.086Z,23.10
2018-12-23T16:13:00.546Z,29.70
2018-12-23T16:15:29.042Z,28.87
2018-12-23T16:17:57.494Z,36.80
2018-12-23T16:20:26.198Z,35.67
2018-12-23T16:23:59.565Z,37.23
2018-12-23T16:26:28.539Z,35.60
2018-12-23T16:28:57.538Z,36.53
2018-12-23T16:31:42.286Z,31.90
2018-12-23T16:34:11.938Z,36.70
2018-12-23T16:39:36.148Z,29.07
2018-12-23T16:42:09.067Z,40.83
2018-12-23T16:44:38.084Z,44.57
2018-12-23T16:50:15.455Z,38.83
2018-12-23T16:52:44.488Z,40.37
2018-12-23T16:55:18.392Z,38.33
2018-12-23T16:57:50.700Z,57.60
2018-12-23T17:00:19.596Z,55.27
2018-12-23T17:02:48.528Z,43.87
2018-12-23T17:05:17.348Z,36.90
2018-12-23T17:07:46.176Z,32.60
2018-12-23T17:10:15.140Z,37.43
2018-12-23T17:12:44.005Z,35.13
2018-12-23T17:15:12.820Z,34.70
2018-12-23T17:17:41.916Z,34.40
2018-12-23T17:20:13.268Z,33.00
2018-12-23T17:22:42.116Z,34.53
2018-12-23T17:25:11.120Z,37.70
2018-12-23T17:27:39.856Z,41.43
2018-12-23T17:30:09.776Z,42.23
2018-12-23T17:32:38.624Z,39.43
2018-12-23T17:35:07.636Z,40.53
2018-12-23T17:37:36.136Z,33.37
2018-12-23T17:40:05.120Z,29.67
2018-12-23T17:42:33.948Z,19.53
2018-12-23T17:45:02.468Z,22.73
2018-12-23T17:47:30.980Z,21.03
2018-12-23T17:49:59.876Z,20.10
2018-12-23T17:52:28.848Z,28.13
2018-12-23T17:54:57.656Z,22.33
2018-12-23T17:57:26.623Z,25.60
2018-12-23T17:59:55.283Z,26.97
2018-12-23T18:02:23.927Z,27.97
2018-12-23T18:04:52.924Z,25.80
2018-12-23T18:07:21.724Z,28.23
2018-12-23T18:09:50.292Z,27.52
2018-12-23T18:12:18.907Z,30.07
2018-12-23T18:14:47.571Z,42.47
2018-12-23T18:17:16.211Z,37.10
2018-12-23T18:19:45.031Z,34.13
2018-12-23T18:22:13.507Z,37.97
2018-12-23T18:24:41.963Z,39.63
2018-12-23T18:27:10.507Z,34.73
2018-12-23T18:29:39.478Z,29.33
2018-12-23T18:32:08.342Z,33.23
2018-12-23T18:34:37.250Z,33.37
2018-12-23T18:37:11.963Z,31.17
2018-12-23T18:39:42.943Z,35.23
2018-12-23T18:42:11.600Z,31.97
2018-12-23T18:44:40.100Z,32.70
2018-12-23T18:47:08.549Z,32.23
2018-12-23T18:49:37.124Z,27.87
2018-12-23T18:52:05.717Z,29.90
2018-12-23T18:54:34.208Z,31.37
2018-12-23T18:57:07.173Z,30.77
2018-12-23T18:59:39.357Z,29.57
2018-12-23T19:02:11.359Z,33.13
2018-12-23T19:04:40.057Z,33.93
2018-12-23T19:07:08.765Z,38.70
2018-12-23T19:09:46.325Z,44.30
2018-12-23T19:14:33.637Z,94.87
2018-12-23T19:18:11.345Z,63.33
2018-12-23T19:20:54.199Z,72.73
2018-12-23T19:23:40.811Z,69.47
2018-12-23T19:28:28.455Z,60.63
2018-12-23T19:33:18.818Z,46.80
2018-12-23T19:35:56.442Z,80.73
2018-12-23T19:38:54.642Z,60.23
2018-12-23T19:41:37.624Z,47.50
2018-12-23T19:46:25.510Z,48.30
2018-12-23T19:49:04.765Z,49.97
2018-12-23T19:51:44.213Z,55.90
2018-12-23T19:57:28.985Z,48.23
2018-12-23T20:00:14.349Z,46.07
2018-12-23T20:04:54.629Z,31.83
2018-12-23T20:07:42.093Z,35.40
2018-12-23T20:10:22.533Z,35.43
2018-12-23T20:15:24.317Z,34.47
2018-12-23T20:19:11.117Z,41.07
2018-12-23T20:24:26.277Z,40.23
2018-12-23T20:27:21.753Z,44.40
2018-12-23T20:32:05.603Z,38.93
2018-12-23T20:34:48.061Z,44.20
2018-12-23T20:39:31.395Z,53.37
2018-12-23T20:44:13.987Z,42.23
2018-12-23T20:46:53.891Z,44.97
2018-12-23T20:49:33.556Z,45.40
2018-12-23T20:52:33.026Z,39.10
2018-12-23T20:56:18.891Z,36.30
2018-12-23T20:59:13.558Z,30.27
2018-12-23T21:04:31.802Z,29.93
2018-12-23T21:07:21.116Z,36.20
2018-12-23T21:10:00.810Z,29.90
2018-12-23T21:12:45.089Z,31.20
2018-12-23T21:15:26.653Z,30.30
2018-12-23T21:18:06.353Z,30.13
2018-12-23T21:21:27.301Z,30.40
2018-12-23T21:26:18.439Z,26.50
2018-12-23T21:29:03.916Z,35.67
2018-12-23T21:31:57.918Z,47.53
2018-12-23T21:35:14.815Z,46.63
2018-12-23T21:37:54.131Z,40.50
2018-12-23T21:40:40.652Z,53.07
2018-12-23T21:43:54.186Z,43.13
2018-12-23T21:49:13.213Z,35.53
2018-12-23T21:55:03.026Z,36.97
2018-12-23T21:57:45.567Z,36.27
2018-12-23T22:02:40.359Z,35.27
2018-12-23T22:07:22.454Z,45.63
2018-12-23T22:09:59.873Z,41.67
2018-12-23T22:13:41.643Z,45.27
2018-12-23T22:16:10.230Z,43.53
2018-12-23T22:18:39.044Z,43.83
2018-12-23T22:21:08.103Z,43.17
2018-12-23T22:54:58.471Z,42.57
2018-12-23T22:58:31.551Z,47.87
2018-12-23T23:07:47.867Z,37.33
2018-12-23T23:15:16.015Z,41.60
2018-12-23T23:17:46.219Z,36.10
2018-12-23T23:20:15.139Z,35.80
2018-12-23T23:25:32.934Z,42.27
2018-12-23T23:28:14.123Z,43.50
2018-12-23T23:30:43.551Z,42.80
2018-12-23T23:33:13.335Z,34.77
2018-12-23T23:35:42.347Z,37.57
2018-12-23T23:38:12.050Z,30.57
2018-12-23T23:40:40.979Z,25.53
2018-12-23T23:43:09.979Z,26.60
2018-12-23T23:51:32.238Z,20.45
2018-12-23T23:54:34.822Z,16.03
